KDVT Airport (Phoenix Deer Valley) Information

FAA: DVT - ICAO: KDVT

KDVT Airport Location

State Arizona
County Maricopa
City Phoenix
KDVT Airport is 15 miles north of Phoenix, AZ.
Latitude 33-41-17.9000N
Longitude 112-04-57.2000W
Elevation 1,478ft

KDVT Airport METARs

METAR KDVT 032153Z 16003KT 10SM CLR 25/01 A2998 RMK AO2 SLP135 T02500011
Altimeter 29.98"
Temperature 25.0°C (77.0°F)
Wind 160° at 3KT
Clouds Skies are clear.
Visibility 10.0mi
Time observed: 2021-12-03T21:53:00Z

KDVT Airport Details

Status Operational
Activation September 1959
Ownership Public
Usage Public
Chart PHOENIX
ATC on-site Yes
Beacon schedule sunset-sunrise
Beacon color clear green

KDVT Airport Contacts

Owner CITY OF PHOENIX
Owner address 3400 SKY HARBOR BLVD, PHOENIX, AZ 85034
Owner phone 623-869-0975
Manager DEBRA STOUT
Manager address 10220 N. METRO PARKWAY E., PHOENIX, AZ 85051
Manager phone 602-331-9816

KDVT Airport (Phoenix Deer Valley) Radio Frequencies

KDVT (Airport) Radio Frequencies

UNICOM 122.95
Common traffic advisory frequency (CTAF) 118.4